Time;durP1;ratioP1;P1;durP2;ratioP2;P2;SDS_P1;SDS_P2;PMS_P1;PMS_P2;Temp;Humidity;BMP_temperature;BMP_pressure;BME280_temperature;BME280_humidity;BME280_pressure;Samples;Min_cycle;Max_cycle;Signal;HPM_P1;HPM_P2
2021/09/22 00:01:00;;;;;;;9.73;8.10;;;;;;;13.03;74.64;97480.47;4977798;28;20209;-59
2021/09/22 00:03:26;;;;;;;8.30;7.47;;;;;;;12.97;74.69;97479.47;4977320;28;20174;-59
2021/09/22 00:05:52;;;;;;;9.20;8.40;;;;;;;12.96;74.91;97477.88;4977541;28;20190;-53
2021/09/22 00:08:17;;;;;;;7.90;7.20;;;;;;;12.93;75.01;97480.13;4977450;28;20170;-59
2021/09/22 00:10:42;;;;;;;9.70;8.37;;;;;;;12.93;74.71;97486.22;4977604;28;20167;-59
2021/09/22 00:13:08;;;;;;;8.50;7.70;;;;;;;13.03;74.23;97475.22;4976675;28;20622;-59
2021/09/22 00:15:33;;;;;;;9.33;8.47;;;;;;;13.02;73.51;97476.22;4977400;28;20213;-59
2021/09/22 00:17:59;;;;;;;9.20;8.23;;;;;;;12.95;73.45;97472.81;4977509;28;20225;-59
2021/09/22 00:20:25;;;;;;;10.93;9.80;;;;;;;12.75;74.75;97475.56;4977265;28;20198;-59
2021/09/22 00:22:55;;;;;;;9.77;8.73;;;;;;;12.71;75.76;97476.19;4976779;28;20190;-58
2021/09/22 00:25:21;;;;;;;9.60;8.70;;;;;;;12.75;75.84;97465.03;4977392;28;20805;-59
2021/09/22 00:27:46;;;;;;;9.40;8.60;;;;;;;12.76;75.28;97466.63;4977284;28;20418;-52
2021/09/22 00:30:12;;;;;;;10.13;9.23;;;;;;;12.82;74.93;97463.16;4977073;28;20959;-52
2021/09/22 00:32:37;;;;;;;11.80;9.10;;;;;;;12.72;75.83;97464.63;4976872;28;20176;-58
2021/09/22 00:35:04;;;;;;;13.17;8.97;;;;;;;12.71;75.79;97469.09;4977062;28;20266;-59
2021/09/22 00:37:30;;;;;;;8.93;8.10;;;;;;;12.72;76.16;97469.91;4976554;28;20186;-59
2021/09/22 00:39:55;;;;;;;10.27;8.77;;;;;;;12.68;76.38;97468.72;4976843;28;20453;-59
2021/09/22 00:42:20;;;;;;;8.33;7.53;;;;;;;12.70;75.98;97467.47;4977045;28;20182;-52
2021/09/22 00:44:56;;;;;;;9.40;8.57;;;;;;;12.63;76.24;97469.31;4976564;28;20599;-59
2021/09/22 00:47:25;;;;;;;9.73;8.83;;;;;;;12.69;74.96;97465.84;4976953;28;20173;-59
2021/09/22 00:49:51;;;;;;;10.07;8.23;;;;;;;12.75;74.46;97469.47;4976897;28;20405;-59
2021/09/22 00:52:18;;;;;;;10.60;9.10;;;;;;;12.79;74.05;97468.81;4975820;28;20456;-59
2021/09/22 00:54:44;;;;;;;10.17;9.10;;;;;;;12.60;75.41;97464.47;4976343;28;20209;-59
2021/09/22 00:57:11;;;;;;;9.60;8.70;;;;;;;12.52;75.35;97466.56;4976593;28;20421;-58
2021/09/22 00:59:36;;;;;;;9.83;8.83;;;;;;;12.43;76.11;97464.16;4976251;28;20488;-59
2021/09/22 01:02:04;;;;;;;11.20;10.07;;;;;;;12.40;76.25;97459.31;4976660;28;20414;-53
2021/09/22 01:04:29;;;;;;;11.83;10.47;;;;;;;12.37;76.28;97464.19;4976202;28;20174;-53
2021/09/22 01:06:54;;;;;;;12.27;10.97;;;;;;;12.36;76.41;97468.66;4976792;28;20414;-52
2021/09/22 01:09:20;;;;;;;12.03;9.17;;;;;;;12.34;76.88;97465.41;4976563;28;20170;-52
2021/09/22 01:11:46;;;;;;;11.60;9.90;;;;;;;12.34;76.85;97470.69;4974704;28;20205;-59
2021/09/22 01:14:12;;;;;;;9.13;8.33;;;;;;;12.40;75.55;97464.59;4975983;28;20651;-52
2021/09/22 01:16:45;;;;;;;10.40;9.30;;;;;;;12.53;75.13;97468.97;4976252;28;20517;-53
2021/09/22 01:19:11;;;;;;;10.47;9.47;;;;;;;12.51;75.07;97471.03;4976300;28;20288;-59
2021/09/22 01:21:41;;;;;;;11.43;10.33;;;;;;;12.47;76.00;97474.28;4976110;28;20411;-53
2021/09/22 01:24:06;;;;;;;11.50;10.23;;;;;;;12.35;76.35;97479.41;4975927;28;20406;-52
2021/09/22 01:26:32;;;;;;;10.97;9.97;;;;;;;12.29;77.09;97475.78;4975913;28;20437;-52
2021/09/22 01:28:58;;;;;;;11.37;10.27;;;;;;;12.32;76.69;97483.25;4976132;28;20226;-52
2021/09/22 01:31:23;;;;;;;10.40;9.17;;;;;;;12.36;77.04;97483.66;4975569;28;20193;-53
2021/09/22 01:33:48;;;;;;;11.73;10.37;;;;;;;12.38;76.68;97486.88;4975258;28;20205;-59
2021/09/22 01:36:14;;;;;;;11.13;10.03;;;;;;;12.29;76.97;97473.13;4975830;28;20214;-52
2021/09/22 01:38:40;;;;;;;10.73;9.73;;;;;;;12.28;76.73;97476.78;4975779;28;20213;-52
2021/09/22 01:41:08;;;;;;;10.27;9.23;;;;;;;12.38;76.09;97482.44;4975927;28;20633;-59
2021/09/22 01:43:37;;;;;;;9.73;8.40;;;;;;;12.48;75.20;97489.91;4975391;28;20174;-59
2021/09/22 01:46:04;;;;;;;10.50;9.30;;;;;;;12.41;75.00;97479.38;4975464;28;20455;-52
2021/09/22 01:48:30;;;;;;;11.17;10.07;;;;;;;12.34;75.04;97475.94;4975254;28;20433;-52
2021/09/22 01:50:57;;;;;;;11.47;10.27;;;;;;;12.23;76.10;97481.88;4975398;28;20432;-52
2021/09/22 01:53:22;;;;;;;10.63;9.57;;;;;;;12.04;77.20;97487.19;4973951;28;20477;-52
2021/09/22 01:55:48;;;;;;;10.97;9.40;;;;;;;11.99;77.66;97490.44;4975422;28;20487;-53
2021/09/22 01:58:14;;;;;;;10.20;9.20;;;;;;;12.00;77.87;97483.34;4975618;28;20178;-58
2021/09/22 02:00:40;;;;;;;10.50;9.50;;;;;;;11.98;78.19;97488.84;4975173;28;20190;-53
2021/09/22 02:03:06;;;;;;;11.03;10.00;;;;;;;12.15;77.01;97483.94;4975098;28;20178;-53
2021/09/22 02:05:31;;;;;;;10.00;8.90;;;;;;;12.24;76.19;97477.41;4975277;28;20417;-59
2021/09/22 02:07:57;;;;;;;10.40;9.40;;;;;;;12.13;76.72;97478.88;4975147;28;20188;-58
2021/09/22 02:10:22;;;;;;;10.27;9.27;;;;;;;12.15;76.99;97476.84;4975543;28;20186;-59
2021/09/22 02:12:48;;;;;;;10.03;9.13;;;;;;;12.16;76.91;97470.53;4974856;28;20182;-58
2021/09/22 02:15:13;;;;;;;9.87;8.87;;;;;;;12.16;76.80;97469.72;4975057;28;20232;-52
2021/09/22 02:17:38;;;;;;;10.27;9.20;;;;;;;12.20;76.97;97463.03;4975157;28;20205;-58
2021/09/22 02:20:05;;;;;;;9.80;8.90;;;;;;;12.24;76.65;97459.78;4975256;28;20230;-52
2021/09/22 02:22:30;;;;;;;10.93;9.73;;;;;;;12.23;76.48;97457.34;4975569;28;20589;-52
2021/09/22 02:24:55;;;;;;;10.63;9.53;;;;;;;12.21;76.80;97454.91;4974461;28;20449;-52
2021/09/22 02:27:21;;;;;;;10.10;9.20;;;;;;;12.26;76.75;97457.75;4975120;28;20602;-56
2021/09/22 02:29:47;;;;;;;11.53;9.00;;;;;;;12.29;76.13;97469.69;4974902;28;20174;-52
2021/09/22 02:32:13;;;;;;;10.30;9.33;;;;;;;12.30;76.49;97461.56;4974920;28;20220;-59
2021/09/22 02:34:38;;;;;;;11.00;9.90;;;;;;;12.23;76.63;97455.53;4974532;28;20409;-59
2021/09/22 02:37:05;;;;;;;9.97;9.07;;;;;;;12.26;75.93;97452.50;4974841;28;20333;-59
2021/09/22 02:39:31;;;;;;;11.30;9.97;;;;;;;12.34;75.22;97461.97;4974658;28;20672;-59
2021/09/22 02:41:57;;;;;;;9.97;9.07;;;;;;;12.25;75.28;97455.31;4974951;28;20488;-52
2021/09/22 02:44:23;;;;;;;10.47;9.37;;;;;;;12.19;75.82;97454.31;4974349;28;20442;-58
2021/09/22 02:46:48;;;;;;;10.50;9.50;;;;;;;12.13;76.13;97455.16;4974883;28;20240;-59
2021/09/22 02:49:14;;;;;;;11.43;10.23;;;;;;;12.17;75.93;97456.34;4974808;28;20654;-53
2021/09/22 02:51:39;;;;;;;11.80;10.57;;;;;;;12.19;76.27;97443.78;4974814;28;20260;-59
2021/09/22 02:54:05;;;;;;;10.17;9.17;;;;;;;12.23;75.31;97436.25;4974072;28;20189;-52
2021/09/22 02:56:30;;;;;;;11.30;10.20;;;;;;;12.20;75.72;97440.13;4974613;28;20198;-59
2021/09/22 02:58:55;;;;;;;10.57;9.37;;;;;;;12.14;76.07;97438.31;4974741;28;20200;-52
2021/09/22 03:01:21;;;;;;;11.30;10.10;;;;;;;12.17;75.66;97442.38;4974618;28;20205;-58
2021/09/22 03:03:46;;;;;;;11.50;10.00;;;;;;;12.04;76.43;97439.78;4974319;28;20632;-59
2021/09/22 03:06:12;;;;;;;10.80;9.70;;;;;;;12.01;77.09;97446.28;4974836;28;20202;-59
2021/09/22 03:08:40;;;;;;;11.00;9.90;;;;;;;12.01;77.31;97446.28;4974325;28;20181;-59
2021/09/22 03:11:08;;;;;;;12.47;11.23;;;;;;;12.05;77.25;97449.28;4974803;28;20544;-52
2021/09/22 03:13:35;;;;;;;11.37;10.27;;;;;;;12.06;76.68;97443.84;4974059;28;20413;-59
2021/09/22 03:16:01;;;;;;;10.40;9.40;;;;;;;12.09;76.71;97451.31;4976426;28;20452;-58
2021/09/22 03:18:26;;;;;;;11.73;10.53;;;;;;;12.15;76.65;97441.78;4978439;28;20769;-59
2021/09/22 03:20:52;;;;;;;11.40;10.30;;;;;;;12.17;75.95;97437.91;4978448;28;20296;-59
2021/09/22 03:23:18;;;;;;;10.80;9.70;;;;;;;12.13;75.78;97430.63;4977706;28;20190;-59
2021/09/22 03:25:44;;;;;;;13.00;10.53;;;;;;;12.05;76.27;97439.56;4978081;28;20198;-58
2021/09/22 03:28:10;;;;;;;11.60;10.07;;;;;;;12.07;76.62;97442.00;4978156;28;20537;-59
2021/09/22 03:30:35;;;;;;;11.60;10.40;;;;;;;12.12;76.57;97444.84;4978390;28;20500;-59
2021/09/22 03:33:01;;;;;;;11.83;9.83;;;;;;;12.09;76.22;97438.16;4977767;28;20520;-59
2021/09/22 03:35:26;;;;;;;12.10;10.80;;;;;;;12.12;76.02;97443.00;4977966;28;20236;-52
2021/09/22 03:37:51;;;;;;;15.37;11.10;;;;;;;12.13;75.96;97444.63;4977691;28;20185;-52
2021/09/22 03:40:17;;;;;;;10.83;9.73;;;;;;;12.15;76.16;97447.88;4978114;28;20194;-58
2021/09/22 03:42:42;;;;;;;11.33;9.83;;;;;;;12.14;76.04;97451.50;4977719;28;20178;-59
2021/09/22 03:45:08;;;;;;;11.90;10.60;;;;;;;12.12;75.75;97458.00;4978017;28;20793;-59
2021/09/22 03:47:33;;;;;;;13.63;11.00;;;;;;;12.15;75.31;97458.41;4977930;28;20178;-53
2021/09/22 03:49:59;;;;;;;11.90;10.77;;;;;;;12.07;75.42;97466.53;4977608;28;20170;-59
2021/09/22 03:52:24;;;;;;;13.50;9.83;;;;;;;12.04;75.65;97477.47;4977886;28;20252;-53
2021/09/22 03:54:50;;;;;;;11.20;10.10;;;;;;;12.07;75.36;97482.31;4977488;28;20201;-59
2021/09/22 03:57:16;;;;;;;12.50;9.87;;;;;;;12.07;75.84;97477.06;4977872;28;20542;-58
2021/09/22 03:59:42;;;;;;;12.33;10.03;;;;;;;12.06;75.64;97479.91;4976225;28;20209;-59
2021/09/22 04:02:07;;;;;;;12.90;10.10;;;;;;;12.07;75.25;97479.69;4977590;28;20174;-52
2021/09/22 04:04:33;;;;;;;17.43;10.97;;;;;;;12.09;75.38;97474.22;4976403;28;20428;-53
2021/09/22 04:06:58;;;;;;;12.17;10.87;;;;;;;12.04;75.17;97477.47;4977888;28;20174;-52
2021/09/22 04:09:24;;;;;;;14.13;10.40;;;;;;;12.01;75.77;97477.09;4977526;28;20715;-58
2021/09/22 04:11:49;;;;;;;12.77;10.90;;;;;;;12.04;75.19;97480.13;4977568;28;20174;-59
2021/09/22 04:14:15;;;;;;;13.03;11.67;;;;;;;12.00;76.03;97486.00;4977186;28;20548;-59
2021/09/22 04:16:40;;;;;;;25.43;12.47;;;;;;;12.05;75.89;97479.09;4977467;28;20661;-52
2021/09/22 04:19:05;;;;;;;11.87;10.60;;;;;;;12.02;76.50;97482.16;4976896;28;20655;-58
2021/09/22 04:21:31;;;;;;;16.70;10.53;;;;;;;12.02;76.33;97482.16;4977384;28;20182;-53
2021/09/22 04:23:57;;;;;;;11.37;9.80;;;;;;;12.06;76.51;97483.34;4975734;28;20261;-52
2021/09/22 04:26:23;;;;;;;12.60;10.80;;;;;;;12.05;76.25;97480.91;4976537;28;20684;-59
2021/09/22 04:28:48;;;;;;;13.00;11.60;;;;;;;12.02;76.93;97484.78;4976587;28;20422;-53
2021/09/22 04:31:14;;;;;;;13.60;12.20;;;;;;;12.05;76.42;97480.91;4977209;28;20406;-59
2021/09/22 04:33:39;;;;;;;13.87;12.27;;;;;;;12.02;76.67;97483.97;4976572;28;20232;-52
2021/09/22 04:36:05;;;;;;;16.87;11.37;;;;;;;12.06;76.46;97480.72;4977070;28;20697;-52
2021/09/22 04:38:30;;;;;;;14.20;12.00;;;;;;;12.09;76.01;97475.03;4977031;28;20178;-59
2021/09/22 04:40:55;;;;;;;13.83;11.20;;;;;;;12.08;76.25;97472.59;4976957;28;20313;-53
2021/09/22 04:43:21;;;;;;;12.67;11.30;;;;;;;12.06;76.01;97478.09;4976420;28;20226;-53
2021/09/22 04:45:47;;;;;;;11.33;10.13;;;;;;;12.02;76.42;97484.78;4976803;28;20288;-52
2021/09/22 04:48:13;;;;;;;12.83;11.43;;;;;;;12.03;76.17;97485.59;4977225;28;20200;-52
2021/09/22 04:50:38;;;;;;;20.10;11.60;;;;;;;12.03;76.32;97483.75;4976857;28;20872;-59
2021/09/22 04:53:05;;;;;;;16.07;11.70;;;;;;;12.08;75.89;97481.31;4976515;28;20413;-53
2021/09/22 04:55:30;;;;;;;15.40;12.40;;;;;;;12.09;75.64;97472.41;4976541;28;20221;-53
2021/09/22 04:57:56;;;;;;;13.87;11.87;;;;;;;12.06;76.39;97474.63;4976294;28;20433;-53
2021/09/22 05:00:21;;;;;;;13.10;11.37;;;;;;;12.02;76.26;97473.44;4976663;28;20202;-52
2021/09/22 05:02:47;;;;;;;13.57;11.80;;;;;;;12.04;76.27;97477.47;4976359;28;20249;-53
2021/09/22 05:05:13;;;;;;;14.73;11.80;;;;;;;12.03;76.88;97478.47;4976198;28;20221;-58
2021/09/22 05:07:38;;;;;;;14.33;10.80;;;;;;;12.05;77.02;97479.09;4976614;28;20549;-52
2021/09/22 05:10:04;;;;;;;13.20;11.10;;;;;;;12.05;76.58;97479.09;4976467;28;20482;-58
2021/09/22 05:12:30;;;;;;;15.77;13.53;;;;;;;12.01;76.76;97475.25;4976551;28;20197;-53
2021/09/22 05:14:55;;;;;;;12.40;11.10;;;;;;;12.00;76.65;97481.53;4975762;28;20441;-52
2021/09/22 05:17:21;;;;;;;13.80;12.13;;;;;;;12.03;76.62;97481.13;4976308;28;20174;-59
2021/09/22 05:19:46;;;;;;;14.13;12.60;;;;;;;12.02;76.65;97482.16;4976277;28;20306;-52
2021/09/22 05:22:15;;;;;;;17.03;13.30;;;;;;;12.01;76.81;97490.25;4975342;28;20625;-52
2021/09/22 05:24:42;;;;;;;18.50;13.13;;;;;;;11.98;77.55;97486.19;4975627;28;20232;-58
2021/09/22 05:27:08;;;;;;;16.73;14.13;;;;;;;12.00;77.56;97493.91;4976257;28;20410;-52
2021/09/22 05:29:34;;;;;;;15.47;13.47;;;;;;;11.99;77.32;97487.81;4976210;28;20417;-58
2021/09/22 05:31:59;;;;;;;15.30;13.00;;;;;;;12.05;77.16;97487.00;4976017;28;20418;-59
2021/09/22 05:34:25;;;;;;;16.17;14.00;;;;;;;12.05;77.47;97484.34;4975591;28;20414;-59
2021/09/22 05:36:50;;;;;;;16.60;14.30;;;;;;;12.10;76.81;97487.19;4975673;28;20531;-59
2021/09/22 05:39:16;;;;;;;16.00;13.70;;;;;;;12.06;77.25;97493.06;4975432;28;20226;-52
2021/09/22 05:41:41;;;;;;;16.57;14.53;;;;;;;12.00;78.07;97486.81;4975821;28;20185;-52
2021/09/22 05:44:06;;;;;;;14.80;13.27;;;;;;;12.05;77.83;97496.72;4975441;28;20185;-53
2021/09/22 05:46:33;;;;;;;14.27;12.73;;;;;;;12.05;77.96;97494.06;4975656;28;20205;-53
2021/09/22 05:48:58;;;;;;;16.00;13.03;;;;;;;12.09;78.23;97497.94;4975989;28;20262;-59
2021/09/22 05:51:23;;;;;;;17.80;12.80;;;;;;;12.09;77.88;97496.09;4975514;28;20437;-59
2021/09/22 05:53:49;;;;;;;13.90;12.50;;;;;;;12.09;77.70;97497.94;4975244;28;20261;-53
2021/09/22 05:56:14;;;;;;;14.70;12.87;;;;;;;12.06;78.23;97496.53;4975446;28;20588;-58
2021/09/22 05:58:40;;;;;;;14.90;13.40;;;;;;;12.08;78.65;97489.19;4975548;28;20178;-52
2021/09/22 06:01:05;;;;;;;15.17;13.57;;;;;;;12.11;78.74;97493.25;4975545;28;20213;-52
2021/09/22 06:03:31;;;;;;;17.80;13.80;;;;;;;12.13;78.55;97489.41;4975127;28;20663;-52
2021/09/22 06:05:56;;;;;;;16.33;14.60;;;;;;;12.16;79.24;97494.25;4974846;28;20198;-53
2021/09/22 06:08:21;;;;;;;18.60;13.60;;;;;;;12.26;79.00;97494.66;4975375;28;20208;-53
2021/09/22 06:10:47;;;;;;;18.73;13.70;;;;;;;12.29;78.88;97493.41;4975477;28;20625;-52
2021/09/22 06:13:13;;;;;;;15.13;12.93;;;;;;;12.32;79.15;97487.72;4974840;28;20511;-53
2021/09/22 06:15:39;;;;;;;14.20;12.70;;;;;;;12.36;78.60;97487.09;4975303;28;20198;-59
2021/09/22 06:18:05;;;;;;;16.90;14.70;;;;;;;12.35;79.13;97492.59;4975235;28;20405;-59
2021/09/22 06:20:31;;;;;;;17.47;14.77;;;;;;;12.41;79.57;97492.53;4975125;28;20456;-58
2021/09/22 06:22:56;;;;;;;18.20;15.03;;;;;;;12.50;79.56;97489.69;4974550;28;20449;-53
2021/09/22 06:25:23;;;;;;;19.20;15.80;;;;;;;12.58;79.95;97487.63;4975394;28;20256;-58
2021/09/22 06:27:48;;;;;;;18.70;15.83;;;;;;;12.61;80.02;97489.81;4975165;28;20252;-52
2021/09/22 06:30:14;;;;;;;22.90;16.40;;;;;;;12.58;81.10;97498.16;4974916;28;20856;-58
2021/09/22 06:32:39;;;;;;;21.53;16.73;;;;;;;12.56;80.98;97488.81;4974697;28;20177;-53
2021/09/22 06:35:06;;;;;;;21.33;16.30;;;;;;;12.59;81.86;97491.06;4974969;28;20554;-58
2021/09/22 06:37:32;;;;;;;24.97;18.97;;;;;;;12.56;81.98;97488.81;4974334;28;20194;-58
2021/09/22 06:39:57;;;;;;;29.60;20.30;;;;;;;12.69;82.24;97492.22;4974855;28;20472;-52
2021/09/22 06:42:23;;;;;;;27.67;19.73;;;;;;;12.67;82.14;97491.63;4973511;28;20178;-53
2021/09/22 06:44:48;;;;;;;27.53;20.07;;;;;;;12.85;82.20;97497.00;4974270;28;20221;-53
2021/09/22 06:47:14;;;;;;;26.20;18.83;;;;;;;12.97;82.27;97494.53;4974965;28;20178;-52
2021/09/22 06:49:39;;;;;;;27.43;18.57;;;;;;;13.08;82.32;97491.22;4974350;28;20173;-59
2021/09/22 06:52:05;;;;;;;23.20;18.10;;;;;;;13.15;82.10;97497.28;4974115;28;20213;-58
2021/09/22 06:54:32;;;;;;;28.63;20.33;;;;;;;13.26;82.55;97492.09;4974381;28;20655;-52
2021/09/22 06:56:58;;;;;;;23.13;19.60;;;;;;;13.37;82.38;97498.50;4974484;28;20181;-59
2021/09/22 06:59:23;;;;;;;28.50;19.43;;;;;;;13.47;82.24;97504.13;4974611;28;20453;-53
2021/09/22 07:01:49;;;;;;;29.50;20.00;;;;;;;13.49;82.38;97501.28;4974837;28;20206;-52
2021/09/22 07:04:14;;;;;;;21.70;18.77;;;;;;;13.55;82.30;97498.59;4974253;28;20173;-59
2021/09/22 07:06:39;;;;;;;29.27;20.40;;;;;;;13.63;82.09;97502.78;4974449;28;20669;-59
2021/09/22 07:09:05;;;;;;;28.13;20.67;;;;;;;13.75;81.42;97501.84;4974972;28;20170;-59
2021/09/22 07:11:30;;;;;;;25.67;20.13;;;;;;;13.85;81.13;97501.34;4974206;28;20182;-53
2021/09/22 07:13:56;;;;;;;25.20;18.80;;;;;;;13.91;80.83;97505.78;4974250;28;20205;-59
2021/09/22 07:16:21;;;;;;;24.27;19.20;;;;;;;13.98;80.76;97515.28;4974608;28;20204;-59
2021/09/22 07:18:47;;;;;;;25.50;19.60;;;;;;;14.03;81.35;97515.41;4974554;28;20178;-59
2021/09/22 07:21:14;;;;;;;24.03;19.20;;;;;;;14.13;80.57;97518.34;4974457;28;20206;-53
2021/09/22 07:23:40;;;;;;;21.50;17.60;;;;;;;14.17;80.79;97516.06;4973997;28;20174;-59
2021/09/22 07:26:06;;;;;;;25.20;18.73;;;;;;;14.22;80.83;97529.47;4974170;28;20503;-53
2021/09/22 07:28:33;;;;;;;21.80;19.00;;;;;;;14.36;79.60;97528.31;4973987;28;20754;-59
2021/09/22 07:30:59;;;;;;;22.17;19.13;;;;;;;14.40;79.99;97535.56;4974299;28;20413;-53
2021/09/22 07:33:25;;;;;;;20.83;17.80;;;;;;;14.43;80.37;97537.00;4974067;28;20414;-52
2021/09/22 07:35:50;;;;;;;21.40;17.80;;;;;;;14.50;80.12;97537.72;4973886;28;20816;-59
2021/09/22 07:38:16;;;;;;;19.10;16.50;;;;;;;14.58;80.66;97533.97;4974055;28;20583;-59
2021/09/22 07:40:42;;;;;;;19.17;17.00;;;;;;;14.63;80.71;97536.75;4973854;28;20213;-53
2021/09/22 07:43:08;;;;;;;18.83;16.73;;;;;;;14.67;80.50;97532.63;4973650;28;20897;-53
2021/09/22 07:45:33;;;;;;;19.87;16.97;;;;;;;14.73;80.85;97535.19;4974312;28;20469;-58
2021/09/22 07:47:59;;;;;;;19.23;16.30;;;;;;;14.79;80.91;97526.38;4974284;28;20264;-59
2021/09/22 07:50:25;;;;;;;21.80;17.80;;;;;;;14.87;81.00;97519.97;4973751;28;20182;-59
2021/09/22 07:52:50;;;;;;;20.50;17.50;;;;;;;14.90;80.52;97517.69;4973730;28;20174;-53
2021/09/22 07:55:16;;;;;;;22.13;16.83;;;;;;;14.97;80.33;97526.34;4974096;28;20194;-59
2021/09/22 07:57:41;;;;;;;17.67;15.93;;;;;;;15.00;79.80;97522.44;4974306;28;20189;-53
2021/09/22 08:00:09;;;;;;;15.57;13.90;;;;;;;14.97;77.09;97530.81;4974196;28;20311;-52
2021/09/22 08:02:34;;;;;;;19.80;16.63;;;;;;;15.07;76.04;97521.31;4976540;28;20266;-56
2021/09/22 08:05:00;;;;;;;17.47;15.60;;;;;;;15.15;76.32;97522.81;4976958;28;21139;-58
2021/09/22 08:07:25;;;;;;;23.20;15.33;;;;;;;15.21;76.86;97529.88;4977748;28;20237;-52
2021/09/22 08:09:50;;;;;;;17.53;15.73;;;;;;;15.20;75.38;97531.72;4977463;28;20189;-52
2021/09/22 08:12:16;;;;;;;15.33;13.93;;;;;;;15.26;74.84;97536.13;4977662;28;20174;-59
2021/09/22 08:14:41;;;;;;;17.90;15.73;;;;;;;15.29;71.49;97535.66;4977135;28;20232;-59
2021/09/22 08:17:07;;;;;;;17.60;15.80;;;;;;;15.29;73.04;97535.66;4977671;28;20181;-53
2021/09/22 08:19:35;;;;;;;18.73;15.40;;;;;;;15.42;73.59;97537.31;4976801;28;20202;-59
2021/09/22 08:22:00;;;;;;;23.20;17.07;;;;;;;15.43;73.87;97550.38;4977133;28;20178;-53
2021/09/22 08:24:26;;;;;;;18.90;14.60;;;;;;;15.54;74.21;97542.66;4977019;28;20486;-53
2021/09/22 08:26:53;;;;;;;16.70;14.03;;;;;;;15.59;73.48;97548.09;4977406;28;20316;-59
2021/09/22 08:29:20;;;;;;;16.60;12.83;;;;;;;15.68;72.64;97544.88;4977346;28;20544;-53
2021/09/22 08:31:46;;;;;;;15.00;13.50;;;;;;;15.74;71.38;97545.81;4977293;28;20496;-53
2021/09/22 08:34:11;;;;;;;15.20;13.00;;;;;;;15.76;71.22;97544.53;4976438;28;20426;-53
2021/09/22 08:36:38;;;;;;;17.03;14.37;;;;;;;15.79;68.41;97553.88;4977326;28;20433;-59
2021/09/22 08:39:04;;;;;;;13.80;12.10;;;;;;;15.90;67.74;97545.13;4977497;28;20532;-53
2021/09/22 08:41:29;;;;;;;13.73;11.80;;;;;;;15.91;69.25;97552.84;4977130;28;20406;-53
2021/09/22 08:44:02;;;;;;;14.50;12.57;;;;;;;15.99;69.53;97546.41;4976164;28;20333;-59
2021/09/22 08:46:28;;;;;;;16.90;12.27;;;;;;;15.95;65.58;97547.91;4977013;28;20281;-59
2021/09/22 08:48:53;;;;;;;13.00;11.60;;;;;;;16.04;65.48;97549.97;4976888;28;20544;-53
2021/09/22 08:51:19;;;;;;;13.57;12.37;;;;;;;16.02;64.38;97545.94;4976820;28;20209;-52
2021/09/22 08:53:44;;;;;;;12.27;10.93;;;;;;;16.12;64.56;97543.53;4976515;28;20171;-53
2021/09/22 08:56:11;;;;;;;13.00;11.33;;;;;;;16.16;65.59;97537.53;4976708;28;20557;-59
2021/09/22 08:58:38;;;;;;;12.60;11.27;;;;;;;16.22;65.63;97535.78;4976489;28;20209;-53
2021/09/22 09:01:15;;;;;;;12.57;11.23;;;;;;;16.25;63.84;97543.31;4976681;28;20457;-59
2021/09/22 09:03:42;;;;;;;11.93;10.80;;;;;;;16.36;62.65;97540.63;4976404;28;20416;-59
2021/09/22 09:06:21;;;;;;;11.13;10.13;;;;;;;16.35;63.69;97538.19;4976594;28;20465;-59
2021/09/22 09:08:48;;;;;;;12.40;11.20;;;;;;;16.43;63.67;97538.66;4976525;28;20842;-53
2021/09/22 09:11:13;;;;;;;10.87;9.83;;;;;;;16.54;63.42;97542.34;4975308;28;20456;-59
2021/09/22 09:13:50;;;;;;;10.10;9.10;;;;;;;16.61;63.92;97544.88;4974981;28;20437;-59
2021/09/22 09:16:21;;;;;;;11.80;10.60;;;;;;;16.73;64.08;97537.69;4976216;28;20692;-53
2021/09/22 09:18:50;;;;;;;11.00;9.90;;;;;;;16.79;62.72;97544.72;4976373;28;20496;-52
2021/09/22 09:21:16;;;;;;;10.30;9.27;;;;;;;16.67;60.18;97550.06;4976317;28;20472;-52
2021/09/22 09:24:07;;;;;;;11.03;10.00;;;;;;;16.84;62.84;97542.16;4976009;28;20425;-59
2021/09/22 09:26:33;;;;;;;10.83;9.60;;;;;;;16.91;62.34;97534.88;4974886;28;20217;-53
2021/09/22 09:28:59;;;;;;;9.07;8.27;;;;;;;16.91;61.46;97529.56;4976053;28;20897;-59
2021/09/22 09:31:33;;;;;;;9.00;8.20;;;;;;;17.01;61.56;97538.50;4975804;28;20200;-59
2021/09/22 09:34:01;;;;;;;8.93;8.13;;;;;;;17.22;61.42;97531.75;4975540;28;20180;-59
2021/09/22 09:36:32;;;;;;;8.57;7.87;;;;;;;17.31;61.89;97522.34;4974510;28;20440;-59
2021/09/22 09:39:25;;;;;;;11.33;8.23;;;;;;;17.39;59.27;97524.63;4975889;28;20445;-53
2021/09/22 09:41:57;;;;;;;9.43;8.53;;;;;;;17.48;60.06;97520.56;4975873;28;20409;-59
2021/09/22 09:44:25;;;;;;;8.00;7.30;;;;;;;17.57;59.03;97518.28;4975214;28;20476;-53
2021/09/22 09:46:54;;;;;;;8.73;7.83;;;;;;;17.61;59.56;97517.56;4975983;28;20440;-59
2021/09/22 09:49:21;;;;;;;8.67;7.87;;;;;;;17.73;59.95;97517.50;4975796;28;20807;-53
2021/09/22 09:51:55;;;;;;;9.27;7.87;;;;;;;17.84;59.25;97519.25;4975808;28;20413;-53
2021/09/22 09:54:24;;;;;;;8.63;7.63;;;;;;;17.87;60.00;97521.44;4975380;28;20406;-59
2021/09/22 09:56:52;;;;;;;11.90;8.47;;;;;;;17.99;56.91;97522.94;4975116;28;20422;-59
2021/09/22 09:59:19;;;;;;;10.00;9.10;;;;;;;18.02;57.26;97519.00;4975527;28;20464;-52
2021/09/22 10:01:48;;;;;;;10.80;9.87;;;;;;;18.04;57.00;97511.59;4975462;28;20480;-53
2021/09/22 10:04:17;;;;;;;9.33;8.23;;;;;;;18.11;58.55;97505.06;4975097;28;20410;-53
2021/09/22 10:06:43;;;;;;;9.43;8.57;;;;;;;18.22;57.31;97506.81;4974536;28;20444;-59
2021/09/22 10:09:09;;;;;;;9.23;7.60;;;;;;;18.25;57.91;97503.66;4975845;28;20424;-59
2021/09/22 10:11:37;;;;;;;8.03;7.27;;;;;;;18.26;57.55;97494.59;4974920;28;20429;-59
2021/09/22 10:14:05;;;;;;;8.60;7.80;;;;;;;18.38;59.58;97492.66;4974871;28;20425;-54
2021/09/22 10:16:33;;;;;;;8.57;7.80;;;;;;;18.40;59.67;97493.22;4975099;28;20430;-53
2021/09/22 10:19:00;;;;;;;8.17;7.33;;;;;;;18.46;56.91;97489.56;4975218;28;20492;-59
2021/09/22 10:21:25;;;;;;;8.97;7.37;;;;;;;18.61;56.70;97485.47;4975236;28;20409;-59
2021/09/22 10:23:53;;;;;;;9.00;8.20;;;;;;;18.67;57.01;97479.97;4974804;28;20428;-59
2021/09/22 10:26:19;;;;;;;8.07;7.37;;;;;;;18.68;55.75;97478.13;4973916;28;20629;-58
2021/09/22 10:28:46;;;;;;;7.33;6.63;;;;;;;18.78;55.88;97479.03;4975148;28;20433;-54
2021/09/22 10:31:21;;;;;;;6.70;6.20;;;;;;;18.82;56.45;97474.03;4974946;28;20181;-59
2021/09/22 10:33:47;;;;;;;12.63;6.60;;;;;;;18.89;56.90;97480.75;4974945;28;20453;-53
2021/09/22 10:36:15;;;;;;;7.20;6.53;;;;;;;18.96;58.23;97478.72;4974515;28;20500;-59
2021/09/22 10:38:43;;;;;;;7.07;6.37;;;;;;;19.03;59.29;97473.97;4974851;28;20525;-59
2021/09/22 10:41:10;;;;;;;7.10;6.47;;;;;;;19.11;57.85;97472.72;4974836;28;20465;-59
2021/09/22 10:43:39;;;;;;;12.03;7.57;;;;;;;19.14;58.26;97470.34;4974135;28;20799;-53
2021/09/22 10:46:10;;;;;;;7.17;6.47;;;;;;;19.21;57.23;97470.13;4974595;28;20433;-53
2021/09/22 10:48:51;;;;;;;7.50;5.77;;;;;;;19.20;56.37;97461.34;4974480;28;20460;-59
2021/09/22 10:51:51;;;;;;;6.30;5.67;;;;;;;19.34;56.24;97462.59;4974263;28;20468;-53
2021/09/22 10:54:27;;;;;;;6.03;5.20;;;;;;;19.36;56.95;97468.47;4974251;28;20437;-53
2021/09/22 10:56:55;;;;;;;6.90;6.20;;;;;;;19.31;55.55;97465.72;4974608;28;20416;-60
2021/09/22 10:59:38;;;;;;;6.50;6.00;;;;;;;19.39;56.65;97459.94;4974476;28;20453;-53
2021/09/22 11:02:05;;;;;;;6.53;6.03;;;;;;;19.51;55.94;97470.47;4974527;28;20496;-52
2021/09/22 11:04:57;;;;;;;7.97;6.90;;;;;;;19.56;57.52;97464.34;4973795;28;20464;-59
2021/09/22 11:07:43;;;;;;;7.40;6.80;;;;;;;19.59;57.38;97466.50;4974441;28;20409;-53
2021/09/22 11:10:33;;;;;;;7.10;6.40;;;;;;;19.69;55.12;97459.41;4974368;28;20452;-59
2021/09/22 11:13:19;;;;;;;7.10;6.50;;;;;;;19.83;58.25;97447.22;4973808;28;20401;-53
2021/09/22 11:15:46;;;;;;;6.07;5.30;;;;;;;19.81;58.20;97449.34;4970546;28;20994;-59
2021/09/22 11:18:12;;;;;;;6.30;5.67;;;;;;;19.98;56.37;97444.66;4974171;28;20889;-53
2021/09/22 11:20:37;;;;;;;7.70;6.20;;;;;;;19.94;58.44;97443.56;4973621;28;20458;-59